Italic G — IBYH — position and weather

sailwx.info

Track history (hours):
 
Tides and Currents Weather Stations Pressure Air Temp Water Temp Dewpoint Dewpoint Depression Visibility Wind Speed Wind Dir Waves Ship Positions

Italic G

Last reported at 2015-Jun-26 06:12 UTC. Time now 2015-Jul-04 20:48 UTC.
Position S 30°22' E 031°11'.
Warning: this ship's position is 8 days out of date.

Length 229 m; draft 14.4 m.

Type: Cargo ship. MMSI: 247282300.

Date/timePositionNaut miles runAvg speedWind from/ knotsBaromVisibWave heightAir tempDewpointWater temp
2015-Jun-26 06:12S 30°22' E 031°11'610.0
2015-Jun-26 05:34S 30°16' E 031°13'1010.4
2015-Jun-26 04:34S 30°07' E 031°20'1110.7
2015-Jun-26 03:34S 29°58' E 031°27'1010.2
2015-Jun-26 02:34S 29°50' E 031°34'1010.2
2015-Jun-26 01:33S 29°41' E 031°40'1110.5
2015-Jun-26 00:34S 29°32' E 031°46'46 1.8
2015-Jun-24 22:31S 28°49' E 032°03'0 0.0
2015-Jun-24 21:22S 28°49' E 032°03'0 0.0
2015-Jun-24 20:28S 28°49' E 032°03'0 0.0
2015-Jun-24 18:28S 28°49' E 032°03'0 0.0
2015-Jun-24 17:31S 28°49' E 032°03'0 0.0
2015-Jun-24 16:31S 28°49' E 032°03'0 0.0
2015-Jun-24 15:31S 28°49' E 032°03'0 0.1
2015-Jun-24 13:33S 28°49' E 032°03'4 4.2
2015-Jun-24 12:34S 28°51' E 032°07'3 2.7
2015-Jun-24 11:34S 28°53' E 032°09'3 2.8
2015-Jun-24 10:32S 28°56' E 032°10'0 0.0
2015-Jun-24 09:32S 28°56' E 032°10'0 0.0
2015-Jun-24 08:32S 28°56' E 032°10'0 0.0
2015-Jun-24 07:32S 28°56' E 032°10'0 0.0
2015-Jun-24 06:32S 28°56' E 032°10'0 0.0
2015-Jun-24 05:32S 28°56' E 032°10'0 0.0
2015-Jun-24 04:32S 28°56' E 032°10'0 0.0
2015-Jun-24 03:32S 28°56' E 032°10'0 0.0
2015-Jun-24 02:32S 28°56' E 032°10'0 0.0
2015-Jun-24 01:32S 28°56' E 032°10'0 0.0
2015-Jun-24 00:32S 28°56' E 032°10'0 0.0
2015-Jun-23 23:32S 28°56' E 032°10'0 0.1
2015-Jun-23 22:32S 28°56' E 032°10'0 0.0
2015-Jun-23 21:32S 28°56' E 032°10'0 0.0
2015-Jun-23 20:32S 28°56' E 032°10'0 0.0
2015-Jun-23 19:29S 28°56' E 032°10'0 0.1
2015-Jun-23 19:02S 28°56' E 032°10'0 0.0
2015-Jun-22 16:11S 28°55' E 032°10'0 0.0
2015-Jun-22 15:32S 28°55' E 032°10'0 0.0
2015-Jun-22 14:32S 28°55' E 032°10'0 0.0
2015-Jun-22 13:32S 28°55' E 032°10'0 0.0
2015-Jun-22 12:23S 28°55' E 032°10'0 0.0
2015-Jun-22 11:29S 28°55' E 032°10'0 0.0
2015-Jun-21 16:11S 28°56' E 032°10'0 0.0
2015-Jun-21 15:32S 28°56' E 032°10'0 0.0
2015-Jun-21 14:32S 28°55' E 032°10'0 0.0
2015-Jun-21 13:26S 28°55' E 032°10'0 0.0
2015-Jun-21 12:26S 28°56' E 032°10'0 0.0
2015-Jun-21 11:26S 28°55' E 032°10'0 0.0
2015-Jun-21 10:29S 28°55' E 032°10'0 0.0
2015-Jun-21 09:32S 28°56' E 032°10'  
Track history (hours):
 
Tides and Currents Weather Stations Pressure Air Temp Water Temp Dewpoint Dewpoint Depression Visibility Wind Speed Wind Dir Waves Ship Positions

Italic G

Last reported at 2015-Jun-26 06:12 UTC. Time now 2015-Jul-04 20:48 UTC.
Position S 30°22' E 031°11'.
Warning: this ship's position is 8 days out of date.

Length 229 m; draft 14.4 m.

Type: Cargo ship. MMSI: 247282300.

Date/timePositionNaut miles runAvg speedWind from/ knotsBaromVisibWave heightAir tempDewpointWater temp
2015-Jun-26 06:12S 30°22' E 031°11'610.0
2015-Jun-26 05:34S 30°16' E 031°13'1010.4
2015-Jun-26 04:34S 30°07' E 031°20'1110.7
2015-Jun-26 03:34S 29°58' E 031°27'1010.2
2015-Jun-26 02:34S 29°50' E 031°34'1010.2
2015-Jun-26 01:33S 29°41' E 031°40'1110.5
2015-Jun-26 00:34S 29°32' E 031°46'46 1.8
2015-Jun-24 22:31S 28°49' E 032°03'0 0.0
2015-Jun-24 21:22S 28°49' E 032°03'0 0.0
2015-Jun-24 20:28S 28°49' E 032°03'0 0.0
2015-Jun-24 18:28S 28°49' E 032°03'0 0.0
2015-Jun-24 17:31S 28°49' E 032°03'0 0.0
2015-Jun-24 16:31S 28°49' E 032°03'0 0.0
2015-Jun-24 15:31S 28°49' E 032°03'0 0.1
2015-Jun-24 13:33S 28°49' E 032°03'4 4.2
2015-Jun-24 12:34S 28°51' E 032°07'3 2.7
2015-Jun-24 11:34S 28°53' E 032°09'3 2.8
2015-Jun-24 10:32S 28°56' E 032°10'0 0.0
2015-Jun-24 09:32S 28°56' E 032°10'0 0.0
2015-Jun-24 08:32S 28°56' E 032°10'0 0.0
2015-Jun-24 07:32S 28°56' E 032°10'0 0.0
2015-Jun-24 06:32S 28°56' E 032°10'0 0.0
2015-Jun-24 05:32S 28°56' E 032°10'0 0.0
2015-Jun-24 04:32S 28°56' E 032°10'0 0.0
2015-Jun-24 03:32S 28°56' E 032°10'0 0.0
2015-Jun-24 02:32S 28°56' E 032°10'0 0.0
2015-Jun-24 01:32S 28°56' E 032°10'0 0.0
2015-Jun-24 00:32S 28°56' E 032°10'0 0.0
2015-Jun-23 23:32S 28°56' E 032°10'0 0.1
2015-Jun-23 22:32S 28°56' E 032°10'0 0.0
2015-Jun-23 21:32S 28°56' E 032°10'0 0.0
2015-Jun-23 20:32S 28°56' E 032°10'0 0.0
2015-Jun-23 19:29S 28°56' E 032°10'0 0.1
2015-Jun-23 19:02S 28°56' E 032°10'0 0.0
2015-Jun-22 16:11S 28°55' E 032°10'0 0.0
2015-Jun-22 15:32S 28°55' E 032°10'0 0.0
2015-Jun-22 14:32S 28°55' E 032°10'0 0.0
2015-Jun-22 13:32S 28°55' E 032°10'0 0.0
2015-Jun-22 12:23S 28°55' E 032°10'0 0.0
2015-Jun-22 11:29S 28°55' E 032°10'0 0.0
2015-Jun-21 16:11S 28°56' E 032°10'0 0.0
2015-Jun-21 15:32S 28°56' E 032°10'0 0.0
2015-Jun-21 14:32S 28°55' E 032°10'0 0.0
2015-Jun-21 13:26S 28°55' E 032°10'0 0.0
2015-Jun-21 12:26S 28°56' E 032°10'0 0.0
2015-Jun-21 11:26S 28°55' E 032°10'0 0.0
2015-Jun-21 10:29S 28°55' E 032°10'0 0.0
2015-Jun-21 09:32S 28°56' E 032°10'  

Dump ship's entire track history